sensor_id;sensor_type;location;lat;lon;timestamp;temperature;humidity
19908;DHT22;10116;53.112;7.356;2023-02-12T00:00:08;23.30;23.70
19908;DHT22;10116;53.112;7.356;2023-02-12T00:02:33;23.30;24.40
19908;DHT22;10116;53.112;7.356;2023-02-12T00:04:59;23.20;23.00
19908;DHT22;10116;53.112;7.356;2023-02-12T00:07:25;23.30;23.90
19908;DHT22;10116;53.112;7.356;2023-02-12T00:09:50;23.30;23.60
19908;DHT22;10116;53.112;7.356;2023-02-12T00:12:16;23.30;23.70
19908;DHT22;10116;53.112;7.356;2023-02-12T00:14:41;23.30;23.70
19908;DHT22;10116;53.112;7.356;2023-02-12T00:17:07;23.30;24.00
19908;DHT22;10116;53.112;7.356;2023-02-12T00:19:33;23.30;23.60
19908;DHT22;10116;53.112;7.356;2023-02-12T00:21:58;23.30;23.50
19908;DHT22;10116;53.112;7.356;2023-02-12T00:24:24;23.30;24.70
19908;DHT22;10116;53.112;7.356;2023-02-12T00:26:50;23.30;23.60
19908;DHT22;10116;53.112;7.356;2023-02-12T00:29:15;23.30;23.90
19908;DHT22;10116;53.112;7.356;2023-02-12T00:31:41;23.30;23.90
19908;DHT22;10116;53.112;7.356;2023-02-12T00:34:08;23.30;23.50
19908;DHT22;10116;53.112;7.356;2023-02-12T00:36:34;23.30;24.20
19908;DHT22;10116;53.112;7.356;2023-02-12T00:39:00;23.30;23.60
19908;DHT22;10116;53.112;7.356;2023-02-12T00:41:26;23.30;24.00
19908;DHT22;10116;53.112;7.356;2023-02-12T00:43:52;23.30;23.80
19908;DHT22;10116;53.112;7.356;2023-02-12T00:46:17;23.30;24.20
19908;DHT22;10116;53.112;7.356;2023-02-12T00:48:43;23.30;24.00
19908;DHT22;10116;53.112;7.356;2023-02-12T00:51:09;23.30;23.80
19908;DHT22;10116;53.112;7.356;2023-02-12T00:53:34;23.30;23.90
19908;DHT22;10116;53.112;7.356;2023-02-12T00:56:00;23.30;23.70
19908;DHT22;10116;53.112;7.356;2023-02-12T00:58:26;23.30;24.70
19908;DHT22;10116;53.112;7.356;2023-02-12T01:00:53;23.30;24.10
19908;DHT22;10116;53.112;7.356;2023-02-12T01:03:19;23.30;23.40
19908;DHT22;10116;53.112;7.356;2023-02-12T01:05:44;23.30;23.60
19908;DHT22;10116;53.112;7.356;2023-02-12T01:08:13;23.30;23.70
19908;DHT22;10116;53.112;7.356;2023-02-12T01:10:39;23.30;23.70
19908;DHT22;10116;53.112;7.356;2023-02-12T01:13:05;23.30;24.20
19908;DHT22;10116;53.112;7.356;2023-02-12T01:15:31;23.20;23.40
19908;DHT22;10116;53.112;7.356;2023-02-12T01:17:56;23.30;23.80
19908;DHT22;10116;53.112;7.356;2023-02-12T01:20:23;23.20;24.00
19908;DHT22;10116;53.112;7.356;2023-02-12T01:22:49;23.20;23.70
19908;DHT22;10116;53.112;7.356;2023-02-12T01:25:15;23.20;23.50
19908;DHT22;10116;53.112;7.356;2023-02-12T01:27:41;23.20;23.60
19908;DHT22;10116;53.112;7.356;2023-02-12T01:30:11;23.20;23.50
19908;DHT22;10116;53.112;7.356;2023-02-12T01:32:36;23.20;24.00
19908;DHT22;10116;53.112;7.356;2023-02-12T01:35:03;23.20;23.70
19908;DHT22;10116;53.112;7.356;2023-02-12T01:37:29;23.20;23.60
19908;DHT22;10116;53.112;7.356;2023-02-12T01:39:54;23.20;23.90
19908;DHT22;10116;53.112;7.356;2023-02-12T01:42:20;23.20;23.20
19908;DHT22;10116;53.112;7.356;2023-02-12T01:47:41;23.20;23.40
19908;DHT22;10116;53.112;7.356;2023-02-12T01:50:10;23.20;23.50
19908;DHT22;10116;53.112;7.356;2023-02-12T01:52:38;23.20;23.80
19908;DHT22;10116;53.112;7.356;2023-02-12T01:55:07;23.20;23.30
19908;DHT22;10116;53.112;7.356;2023-02-12T01:57:38;23.20;23.80
19908;DHT22;10116;53.112;7.356;2023-02-12T02:00:08;23.20;23.70
19908;DHT22;10116;53.112;7.356;2023-02-12T02:02:35;23.20;24.10
19908;DHT22;10116;53.112;7.356;2023-02-12T02:05:03;23.10;23.90
19908;DHT22;10116;53.112;7.356;2023-02-12T02:07:29;23.20;23.60
19908;DHT22;10116;53.112;7.356;2023-02-12T02:09:56;23.20;24.40
19908;DHT22;10116;53.112;7.356;2023-02-12T02:12:22;23.20;24.20
19908;DHT22;10116;53.112;7.356;2023-02-12T02:15:07;23.20;23.50
19908;DHT22;10116;53.112;7.356;2023-02-12T02:32:34;23.10;24.00
19908;DHT22;10116;53.112;7.356;2023-02-12T02:35:17;23.10;23.40
19908;DHT22;10116;53.112;7.356;2023-02-12T02:38:21;23.10;23.50
19908;DHT22;10116;53.112;7.356;2023-02-12T02:41:10;23.10;23.70
19908;DHT22;10116;53.112;7.356;2023-02-12T02:43:43;23.10;23.60
19908;DHT22;10116;53.112;7.356;2023-02-12T02:46:34;23.10;24.00
19908;DHT22;10116;53.112;7.356;2023-02-12T02:49:05;23.10;24.20
19908;DHT22;10116;53.112;7.356;2023-02-12T02:51:35;23.10;24.20
19908;DHT22;10116;53.112;7.356;2023-02-12T02:54:08;23.10;24.00
19908;DHT22;10116;53.112;7.356;2023-02-12T02:56:38;23.10;24.00
19908;DHT22;10116;53.112;7.356;2023-02-12T02:59:10;23.10;24.10
19908;DHT22;10116;53.112;7.356;2023-02-12T03:01:44;23.10;24.00
19908;DHT22;10116;53.112;7.356;2023-02-12T03:04:20;23.10;24.90
19908;DHT22;10116;53.112;7.356;2023-02-12T03:06:56;23.10;24.10
19908;DHT22;10116;53.112;7.356;2023-02-12T03:09:30;23.10;24.20
19908;DHT22;10116;53.112;7.356;2023-02-12T03:12:02;23.10;24.20
19908;DHT22;10116;53.112;7.356;2023-02-12T03:14:33;23.10;24.30
19908;DHT22;10116;53.112;7.356;2023-02-12T03:17:08;23.10;24.60
19908;DHT22;10116;53.112;7.356;2023-02-12T03:19:38;23.10;25.00
19908;DHT22;10116;53.112;7.356;2023-02-12T03:22:09;23.10;24.90
19908;DHT22;10116;53.112;7.356;2023-02-12T03:24:42;23.10;24.60
19908;DHT22;10116;53.112;7.356;2023-02-12T03:27:16;23.10;24.70
19908;DHT22;10116;53.112;7.356;2023-02-12T03:29:44;23.10;24.70
19908;DHT22;10116;53.112;7.356;2023-02-12T03:34:54;23.10;24.50
19908;DHT22;10116;53.112;7.356;2023-02-12T03:37:31;23.10;24.60
19908;DHT22;10116;53.112;7.356;2023-02-12T03:40:07;23.10;24.60
19908;DHT22;10116;53.112;7.356;2023-02-12T03:42:40;23.10;25.20
19908;DHT22;10116;53.112;7.356;2023-02-12T03:45:35;23.10;24.60
19908;DHT22;10116;53.112;7.356;2023-02-12T03:50:43;23.10;35.30
19908;DHT22;10116;53.112;7.356;2023-02-12T03:53:09;23.10;25.00
19908;DHT22;10116;53.112;7.356;2023-02-12T03:55:40;23.10;24.80
19908;DHT22;10116;53.112;7.356;2023-02-12T03:58:08;23.10;25.10
19908;DHT22;10116;53.112;7.356;2023-02-12T04:00:37;23.10;24.70
19908;DHT22;10116;53.112;7.356;2023-02-12T04:03:03;23.10;24.70
19908;DHT22;10116;53.112;7.356;2023-02-12T04:05:29;23.10;25.00
19908;DHT22;10116;53.112;7.356;2023-02-12T04:07:56;23.10;25.50
19908;DHT22;10116;53.112;7.356;2023-02-12T04:13:49;23.10;26.30
19908;DHT22;10116;53.112;7.356;2023-02-12T04:18:47;23.10;25.20
19908;DHT22;10116;53.112;7.356;2023-02-12T04:24:10;23.10;25.30
19908;DHT22;10116;53.112;7.356;2023-02-12T04:26:50;23.10;26.20
19908;DHT22;10116;53.112;7.356;2023-02-12T04:31:56;23.30;39.90
19908;DHT22;10116;53.112;7.356;2023-02-12T04:37:34;23.40;28.00
19908;DHT22;10116;53.112;7.356;2023-02-12T04:40:04;23.40;28.30
19908;DHT22;10116;53.112;7.356;2023-02-12T04:42:30;23.50;28.70
19908;DHT22;10116;53.112;7.356;2023-02-12T04:44:55;23.50;28.80
19908;DHT22;10116;53.112;7.356;2023-02-12T04:47:21;23.50;28.20
19908;DHT22;10116;53.112;7.356;2023-02-12T04:49:47;23.60;28.40
19908;DHT22;10116;53.112;7.356;2023-02-12T04:52:12;23.50;28.20
19908;DHT22;10116;53.112;7.356;2023-02-12T04:54:38;23.60;28.30
19908;DHT22;10116;53.112;7.356;2023-02-12T04:57:03;23.60;28.40
19908;DHT22;10116;53.112;7.356;2023-02-12T04:59:29;23.60;28.30
19908;DHT22;10116;53.112;7.356;2023-02-12T05:01:54;23.50;28.30
19908;DHT22;10116;53.112;7.356;2023-02-12T05:04:20;23.60;28.60
19908;DHT22;10116;53.112;7.356;2023-02-12T05:06:46;23.50;28.70
19908;DHT22;10116;53.112;7.356;2023-02-12T05:09:14;23.50;28.20
19908;DHT22;10116;53.112;7.356;2023-02-12T05:11:39;23.50;28.70
19908;DHT22;10116;53.112;7.356;2023-02-12T05:14:05;23.60;28.20
19908;DHT22;10116;53.112;7.356;2023-02-12T05:16:31;23.60;28.70
19908;DHT22;10116;53.112;7.356;2023-02-12T05:18:56;23.60;28.30
19908;DHT22;10116;53.112;7.356;2023-02-12T05:21:22;23.60;28.20
19908;DHT22;10116;53.112;7.356;2023-02-12T05:23:48;23.60;28.40
19908;DHT22;10116;53.112;7.356;2023-02-12T05:26:19;23.60;28.70
19908;DHT22;10116;53.112;7.356;2023-02-12T05:28:45;23.70;28.70
19908;DHT22;10116;53.112;7.356;2023-02-12T05:31:13;23.70;28.40
19908;DHT22;10116;53.112;7.356;2023-02-12T05:33:43;23.70;29.00
19908;DHT22;10116;53.112;7.356;2023-02-12T05:36:13;23.70;29.00
19908;DHT22;10116;53.112;7.356;2023-02-12T05:38:39;23.80;29.10
19908;DHT22;10116;53.112;7.356;2023-02-12T05:41:11;23.80;30.00
19908;DHT22;10116;53.112;7.356;2023-02-12T05:43:37;23.80;29.90
19908;DHT22;10116;53.112;7.356;2023-02-12T05:46:04;23.80;29.80
19908;DHT22;10116;53.112;7.356;2023-02-12T05:48:30;23.80;30.20
19908;DHT22;10116;53.112;7.356;2023-02-12T05:51:14;23.80;29.60
19908;DHT22;10116;53.112;7.356;2023-02-12T05:53:40;23.80;29.10
19908;DHT22;10116;53.112;7.356;2023-02-12T05:56:17;23.80;29.20
19908;DHT22;10116;53.112;7.356;2023-02-12T05:58:46;23.80;29.20
19908;DHT22;10116;53.112;7.356;2023-02-12T06:01:18;23.80;29.00
19908;DHT22;10116;53.112;7.356;2023-02-12T06:03:44;23.80;40.50
19908;DHT22;10116;53.112;7.356;2023-02-12T06:06:09;23.80;29.00
19908;DHT22;10116;53.112;7.356;2023-02-12T06:08:36;23.80;29.00
19908;DHT22;10116;53.112;7.356;2023-02-12T06:11:04;23.80;28.80
19908;DHT22;10116;53.112;7.356;2023-02-12T06:13:31;23.80;28.50
19908;DHT22;10116;53.112;7.356;2023-02-12T06:15:57;23.80;28.50
19908;DHT22;10116;53.112;7.356;2023-02-12T06:18:23;23.80;28.40
19908;DHT22;10116;53.112;7.356;2023-02-12T06:20:49;23.70;28.70
19908;DHT22;10116;53.112;7.356;2023-02-12T06:23:14;23.70;28.40
19908;DHT22;10116;53.112;7.356;2023-02-12T06:25:40;23.70;28.30
19908;DHT22;10116;53.112;7.356;2023-02-12T06:28:05;23.70;28.30
19908;DHT22;10116;53.112;7.356;2023-02-12T06:30:33;23.70;28.40
19908;DHT22;10116;53.112;7.356;2023-02-12T06:32:59;23.70;28.70
19908;DHT22;10116;53.112;7.356;2023-02-12T06:35:25;23.70;28.50
19908;DHT22;10116;53.112;7.356;2023-02-12T06:37:51;23.80;29.00
19908;DHT22;10116;53.112;7.356;2023-02-12T06:40:17;23.80;29.40
19908;DHT22;10116;53.112;7.356;2023-02-12T06:42:43;23.80;29.30
19908;DHT22;10116;53.112;7.356;2023-02-12T06:45:08;23.90;41.40
19908;DHT22;10116;53.112;7.356;2023-02-12T06:47:34;23.90;29.70
19908;DHT22;10116;53.112;7.356;2023-02-12T06:49:59;23.90;30.80
19908;DHT22;10116;53.112;7.356;2023-02-12T06:52:26;23.90;30.70
19908;DHT22;10116;53.112;7.356;2023-02-12T06:54:51;23.90;30.00
19908;DHT22;10116;53.112;7.356;2023-02-12T06:57:17;23.90;30.60
19908;DHT22;10116;53.112;7.356;2023-02-12T06:59:43;23.90;30.50
19908;DHT22;10116;53.112;7.356;2023-02-12T07:02:10;23.90;30.60
19908;DHT22;10116;53.112;7.356;2023-02-12T07:04:37;23.90;29.90
19908;DHT22;10116;53.112;7.356;2023-02-12T07:07:03;23.90;30.80
19908;DHT22;10116;53.112;7.356;2023-02-12T07:09:29;23.90;30.00
19908;DHT22;10116;53.112;7.356;2023-02-12T07:11:56;23.90;29.60
19908;DHT22;10116;53.112;7.356;2023-02-12T07:14:22;23.90;29.30
19908;DHT22;10116;53.112;7.356;2023-02-12T07:16:47;23.90;29.90
19908;DHT22;10116;53.112;7.356;2023-02-12T07:19:13;23.90;29.60
19908;DHT22;10116;53.112;7.356;2023-02-12T07:21:38;23.90;29.80
19908;DHT22;10116;53.112;7.356;2023-02-12T07:24:04;23.80;29.40
19908;DHT22;10116;53.112;7.356;2023-02-12T07:26:30;23.90;29.50
19908;DHT22;10116;53.112;7.356;2023-02-12T07:28:56;23.80;28.60
19908;DHT22;10116;53.112;7.356;2023-02-12T07:31:23;23.80;29.10
19908;DHT22;10116;53.112;7.356;2023-02-12T07:33:53;23.80;28.50
19908;DHT22;10116;53.112;7.356;2023-02-12T07:36:19;23.80;28.40
19908;DHT22;10116;53.112;7.356;2023-02-12T07:38:45;23.80;28.50
19908;DHT22;10116;53.112;7.356;2023-02-12T07:41:19;23.80;28.90
19908;DHT22;10116;53.112;7.356;2023-02-12T07:43:47;23.80;28.60
19908;DHT22;10116;53.112;7.356;2023-02-12T07:46:14;23.80;28.50
19908;DHT22;10116;53.112;7.356;2023-02-12T07:48:41;23.90;29.40
19908;DHT22;10116;53.112;7.356;2023-02-12T07:51:09;23.90;30.00
19908;DHT22;10116;53.112;7.356;2023-02-12T07:53:35;23.90;30.00
19908;DHT22;10116;53.112;7.356;2023-02-12T07:58:35;24.00;30.80
19908;DHT22;10116;53.112;7.356;2023-02-12T08:01:10;24.00;30.80
19908;DHT22;10116;53.112;7.356;2023-02-12T08:03:36;24.00;30.90
19908;DHT22;10116;53.112;7.356;2023-02-12T08:06:09;23.90;31.30
19908;DHT22;10116;53.112;7.356;2023-02-12T08:08:35;23.90;30.70
19908;DHT22;10116;53.112;7.356;2023-02-12T08:11:04;24.00;30.70
19908;DHT22;10116;53.112;7.356;2023-02-12T08:13:31;23.90;30.40
19908;DHT22;10116;53.112;7.356;2023-02-12T08:16:05;23.90;31.10
19908;DHT22;10116;53.112;7.356;2023-02-12T08:18:32;23.90;30.80
19908;DHT22;10116;53.112;7.356;2023-02-12T08:21:05;23.90;30.50
19908;DHT22;10116;53.112;7.356;2023-02-12T08:23:31;23.90;30.70
19908;DHT22;10116;53.112;7.356;2023-02-12T08:26:05;23.90;30.40
19908;DHT22;10116;53.112;7.356;2023-02-12T08:28:31;23.90;30.80
19908;DHT22;10116;53.112;7.356;2023-02-12T08:31:01;23.90;30.60
19908;DHT22;10116;53.112;7.356;2023-02-12T08:33:27;23.90;29.40
19908;DHT22;10116;53.112;7.356;2023-02-12T08:36:07;23.80;29.30
19908;DHT22;10116;53.112;7.356;2023-02-12T08:38:35;23.80;29.50
19908;DHT22;10116;53.112;7.356;2023-02-12T08:41:06;23.80;29.50
19908;DHT22;10116;53.112;7.356;2023-02-12T08:43:32;23.80;30.80
19908;DHT22;10116;53.112;7.356;2023-02-12T08:46:25;23.80;29.00
19908;DHT22;10116;53.112;7.356;2023-02-12T08:49:00;23.80;28.70
19908;DHT22;10116;53.112;7.356;2023-02-12T08:51:29;23.70;29.00
19908;DHT22;10116;53.112;7.356;2023-02-12T08:53:58;23.70;28.30
19908;DHT22;10116;53.112;7.356;2023-02-12T08:56:25;23.70;28.70
19908;DHT22;10116;53.112;7.356;2023-02-12T08:58:51;23.80;29.20
19908;DHT22;10116;53.112;7.356;2023-02-12T09:01:22;23.80;29.70
19908;DHT22;10116;53.112;7.356;2023-02-12T09:03:49;23.80;29.50
19908;DHT22;10116;53.112;7.356;2023-02-12T09:06:16;23.80;29.70
19908;DHT22;10116;53.112;7.356;2023-02-12T09:08:43;23.80;29.60
19908;DHT22;10116;53.112;7.356;2023-02-12T09:11:11;23.70;29.00
19908;DHT22;10116;53.112;7.356;2023-02-12T09:13:38;23.80;28.40
19908;DHT22;10116;53.112;7.356;2023-02-12T09:16:07;23.70;28.30
19908;DHT22;10116;53.112;7.356;2023-02-12T09:18:34;23.70;28.30
19908;DHT22;10116;53.112;7.356;2023-02-12T09:21:08;23.70;31.60
19908;DHT22;10116;53.112;7.356;2023-02-12T09:23:35;23.70;28.20
19908;DHT22;10116;53.112;7.356;2023-02-12T09:26:04;23.60;28.30
19908;DHT22;10116;53.112;7.356;2023-02-12T09:28:30;23.60;28.50
19908;DHT22;10116;53.112;7.356;2023-02-12T09:30:55;23.60;28.30
19908;DHT22;10116;53.112;7.356;2023-02-12T09:33:22;23.60;28.20
19908;DHT22;10116;53.112;7.356;2023-02-12T09:35:48;23.50;28.20
19908;DHT22;10116;53.112;7.356;2023-02-12T09:38:13;23.50;28.20
19908;DHT22;10116;53.112;7.356;2023-02-12T09:43:55;23.50;28.50
19908;DHT22;10116;53.112;7.356;2023-02-12T09:46:32;23.40;28.10
19908;DHT22;10116;53.112;7.356;2023-02-12T09:49:13;23.40;28.80
19908;DHT22;10116;53.112;7.356;2023-02-12T09:51:43;23.40;28.20
19908;DHT22;10116;53.112;7.356;2023-02-12T09:54:14;23.40;28.20
19908;DHT22;10116;53.112;7.356;2023-02-12T09:56:43;23.30;28.30
19908;DHT22;10116;53.112;7.356;2023-02-12T09:59:35;23.40;28.00
19908;DHT22;10116;53.112;7.356;2023-02-12T10:01:59;23.40;28.40
19908;DHT22;10116;53.112;7.356;2023-02-12T10:04:26;23.30;28.00
19908;DHT22;10116;53.112;7.356;2023-02-12T10:07:03;23.30;28.00
19908;DHT22;10116;53.112;7.356;2023-02-12T10:18:21;23.30;28.20
19908;DHT22;10116;53.112;7.356;2023-02-12T10:21:33;23.30;28.50
19908;DHT22;10116;53.112;7.356;2023-02-12T10:26:54;23.30;28.10
19908;DHT22;10116;53.112;7.356;2023-02-12T10:29:28;23.30;28.10
19908;DHT22;10116;53.112;7.356;2023-02-12T10:32:04;23.30;28.10
19908;DHT22;10116;53.112;7.356;2023-02-12T10:34:35;23.30;28.00
19908;DHT22;10116;53.112;7.356;2023-02-12T10:37:30;23.30;28.40
19908;DHT22;10116;53.112;7.356;2023-02-12T10:40:22;23.30;28.50
19908;DHT22;10116;53.112;7.356;2023-02-12T10:42:50;23.40;28.20
19908;DHT22;10116;53.112;7.356;2023-02-12T10:45:28;23.40;28.10
19908;DHT22;10116;53.112;7.356;2023-02-12T10:48:03;23.50;28.50
19908;DHT22;10116;53.112;7.356;2023-02-12T10:53:25;23.60;30.00
19908;DHT22;10116;53.112;7.356;2023-02-12T10:56:23;23.70;30.50
19908;DHT22;10116;53.112;7.356;2023-02-12T11:01:28;23.70;31.40
19908;DHT22;10116;53.112;7.356;2023-02-12T11:03:57;23.80;31.40
19908;DHT22;10116;53.112;7.356;2023-02-12T11:06:27;23.80;31.90
19908;DHT22;10116;53.112;7.356;2023-02-12T11:08:54;23.80;31.90
19908;DHT22;10116;53.112;7.356;2023-02-12T11:11:26;23.80;32.20
19908;DHT22;10116;53.112;7.356;2023-02-12T11:14:04;23.80;31.70
19908;DHT22;10116;53.112;7.356;2023-02-12T11:16:36;23.80;32.10
19908;DHT22;10116;53.112;7.356;2023-02-12T11:19:16;23.80;32.00
19908;DHT22;10116;53.112;7.356;2023-02-12T11:21:44;23.80;31.70
19908;DHT22;10116;53.112;7.356;2023-02-12T11:24:29;23.80;31.60
19908;DHT22;10116;53.112;7.356;2023-02-12T11:27:28;23.80;31.50
19908;DHT22;10116;53.112;7.356;2023-02-12T11:30:11;23.80;31.90
19908;DHT22;10116;53.112;7.356;2023-02-12T11:32:38;23.70;31.20
19908;DHT22;10116;53.112;7.356;2023-02-12T11:35:18;23.80;40.40
19908;DHT22;10116;53.112;7.356;2023-02-12T11:37:53;23.70;31.50
19908;DHT22;10116;53.112;7.356;2023-02-12T11:40:32;23.70;31.70
19908;DHT22;10116;53.112;7.356;2023-02-12T11:43:03;23.70;31.30
19908;DHT22;10116;53.112;7.356;2023-02-12T11:45:40;23.70;32.00
19908;DHT22;10116;53.112;7.356;2023-02-12T11:48:29;23.80;31.50
19908;DHT22;10116;53.112;7.356;2023-02-12T11:50:58;23.80;32.20
19908;DHT22;10116;53.112;7.356;2023-02-12T11:53:39;23.80;32.10
19908;DHT22;10116;53.112;7.356;2023-02-12T11:56:11;23.80;31.50
19908;DHT22;10116;53.112;7.356;2023-02-12T11:58:38;23.80;31.70
19908;DHT22;10116;53.112;7.356;2023-02-12T12:09:30;23.70;30.60
19908;DHT22;10116;53.112;7.356;2023-02-12T12:12:09;23.60;30.80
19908;DHT22;10116;53.112;7.356;2023-02-12T12:24:14;23.60;30.10
19908;DHT22;10116;53.112;7.356;2023-02-12T12:26:46;23.60;30.70
19908;DHT22;10116;53.112;7.356;2023-02-12T12:29:24;23.60;30.60
19908;DHT22;10116;53.112;7.356;2023-02-12T12:32:00;23.60;30.80
19908;DHT22;10116;53.112;7.356;2023-02-12T12:34:28;23.60;30.70
19908;DHT22;10116;53.112;7.356;2023-02-12T12:42:47;23.50;30.00
19908;DHT22;10116;53.112;7.356;2023-02-12T12:54:01;23.70;32.60
19908;DHT22;10116;53.112;7.356;2023-02-12T12:59:41;23.80;33.40
19908;DHT22;10116;53.112;7.356;2023-02-12T13:02:23;23.80;34.80
19908;DHT22;10116;53.112;7.356;2023-02-12T13:10:37;23.80;34.00
19908;DHT22;10116;53.112;7.356;2023-02-12T13:13:51;23.90;34.40
19908;DHT22;10116;53.112;7.356;2023-02-12T13:27:01;23.80;34.00
19908;DHT22;10116;53.112;7.356;2023-02-12T13:29:33;23.80;34.10
19908;DHT22;10116;53.112;7.356;2023-02-12T13:32:15;23.70;32.70
19908;DHT22;10116;53.112;7.356;2023-02-12T13:34:44;23.70;32.80
19908;DHT22;10116;53.112;7.356;2023-02-12T13:37:16;23.70;43.90
19908;DHT22;10116;53.112;7.356;2023-02-12T13:39:45;23.70;32.10
19908;DHT22;10116;53.112;7.356;2023-02-12T13:47:44;23.60;32.20
19908;DHT22;10116;53.112;7.356;2023-02-12T13:50:33;23.60;31.30
19908;DHT22;10116;53.112;7.356;2023-02-12T13:56:10;23.50;30.70
19908;DHT22;10116;53.112;7.356;2023-02-12T14:01:14;23.40;30.10
19908;DHT22;10116;53.112;7.356;2023-02-12T14:12:11;23.40;29.80
19908;DHT22;10116;53.112;7.356;2023-02-12T14:14:41;23.40;29.00
19908;DHT22;10116;53.112;7.356;2023-02-12T14:20:30;23.40;30.10
19908;DHT22;10116;53.112;7.356;2023-02-12T14:23:22;23.40;30.30
19908;DHT22;10116;53.112;7.356;2023-02-12T14:26:07;23.50;30.90
19908;DHT22;10116;53.112;7.356;2023-02-12T14:28:56;23.50;32.40
19908;DHT22;10116;53.112;7.356;2023-02-12T14:41:26;23.70;33.40
19908;DHT22;10116;53.112;7.356;2023-02-12T14:46:57;23.70;34.10
19908;DHT22;10116;53.112;7.356;2023-02-12T14:54:49;23.70;33.50
19908;DHT22;10116;53.112;7.356;2023-02-12T14:57:38;23.70;33.80
19908;DHT22;10116;53.112;7.356;2023-02-12T15:07:55;23.70;33.60
19908;DHT22;10116;53.112;7.356;2023-02-12T15:10:27;23.70;34.00
19908;DHT22;10116;53.112;7.356;2023-02-12T15:21:24;23.70;33.80
19908;DHT22;10116;53.112;7.356;2023-02-12T15:26:28;23.70;34.40
19908;DHT22;10116;53.112;7.356;2023-02-12T15:28:54;23.70;46.60
19908;DHT22;10116;53.112;7.356;2023-02-12T15:31:25;23.70;35.10
19908;DHT22;10116;53.112;7.356;2023-02-12T15:33:52;23.80;34.80
19908;DHT22;10116;53.112;7.356;2023-02-12T15:36:24;23.80;35.60
19908;DHT22;10116;53.112;7.356;2023-02-12T15:38:56;23.80;36.70
19908;DHT22;10116;53.112;7.356;2023-02-12T15:43:53;23.90;37.20
19908;DHT22;10116;53.112;7.356;2023-02-12T15:46:19;23.90;36.60
19908;DHT22;10116;53.112;7.356;2023-02-12T15:48:45;23.90;37.10
19908;DHT22;10116;53.112;7.356;2023-02-12T15:51:34;23.90;37.00
19908;DHT22;10116;53.112;7.356;2023-02-12T15:54:05;23.90;36.60
19908;DHT22;10116;53.112;7.356;2023-02-12T15:56:32;23.80;36.10
19908;DHT22;10116;53.112;7.356;2023-02-12T15:59:01;23.90;36.70
19908;DHT22;10116;53.112;7.356;2023-02-12T16:01:33;23.90;36.30
19908;DHT22;10116;53.112;7.356;2023-02-12T16:04:05;23.90;36.40
19908;DHT22;10116;53.112;7.356;2023-02-12T16:06:32;23.80;36.30
19908;DHT22;10116;53.112;7.356;2023-02-12T16:09:08;23.90;36.80
19908;DHT22;10116;53.112;7.356;2023-02-12T16:11:38;23.80;36.10
19908;DHT22;10116;53.112;7.356;2023-02-12T16:14:21;23.90;36.40
19908;DHT22;10116;53.112;7.356;2023-02-12T16:16:50;23.90;36.00
19908;DHT22;10116;53.112;7.356;2023-02-12T16:21:43;23.80;35.90
19908;DHT22;10116;53.112;7.356;2023-02-12T16:24:25;23.80;36.40
19908;DHT22;10116;53.112;7.356;2023-02-12T16:26:52;23.80;35.80
19908;DHT22;10116;53.112;7.356;2023-02-12T16:29:18;23.80;36.00
19908;DHT22;10116;53.112;7.356;2023-02-12T16:31:58;23.80;36.00
19908;DHT22;10116;53.112;7.356;2023-02-12T16:34:33;23.80;35.90
19908;DHT22;10116;53.112;7.356;2023-02-12T16:37:00;23.80;36.40
19908;DHT22;10116;53.112;7.356;2023-02-12T16:42:15;23.80;36.50
19908;DHT22;10116;53.112;7.356;2023-02-12T16:44:43;23.90;37.30
19908;DHT22;10116;53.112;7.356;2023-02-12T16:47:18;23.90;37.30
19908;DHT22;10116;53.112;7.356;2023-02-12T16:49:57;23.90;37.60
19908;DHT22;10116;53.112;7.356;2023-02-12T16:52:34;23.90;37.40
19908;DHT22;10116;53.112;7.356;2023-02-12T16:55:01;23.90;37.70
19908;DHT22;10116;53.112;7.356;2023-02-12T16:57:26;23.90;39.10
19908;DHT22;10116;53.112;7.356;2023-02-12T16:59:52;23.90;37.80
19908;DHT22;10116;53.112;7.356;2023-02-12T17:02:18;23.90;38.90
19908;DHT22;10116;53.112;7.356;2023-02-12T17:04:43;23.90;38.30
19908;DHT22;10116;53.112;7.356;2023-02-12T17:07:21;23.90;38.00
19908;DHT22;10116;53.112;7.356;2023-02-12T17:09:47;23.90;38.00
19908;DHT22;10116;53.112;7.356;2023-02-12T17:12:13;23.90;38.30
19908;DHT22;10116;53.112;7.356;2023-02-12T17:14:39;23.90;37.90
19908;DHT22;10116;53.112;7.356;2023-02-12T17:17:05;23.90;38.60
19908;DHT22;10116;53.112;7.356;2023-02-12T17:19:31;23.90;38.50
19908;DHT22;10116;53.112;7.356;2023-02-12T17:21:56;23.90;38.40
19908;DHT22;10116;53.112;7.356;2023-02-12T17:24:25;23.90;38.60
19908;DHT22;10116;53.112;7.356;2023-02-12T17:26:51;23.90;38.70
19908;DHT22;10116;53.112;7.356;2023-02-12T17:29:19;23.90;38.40
19908;DHT22;10116;53.112;7.356;2023-02-12T17:31:46;23.90;39.10
19908;DHT22;10116;53.112;7.356;2023-02-12T17:34:13;23.90;39.80
19908;DHT22;10116;53.112;7.356;2023-02-12T17:36:38;23.90;39.00
19908;DHT22;10116;53.112;7.356;2023-02-12T17:39:06;23.90;38.80
19908;DHT22;10116;53.112;7.356;2023-02-12T17:41:32;23.90;38.90
19908;DHT22;10116;53.112;7.356;2023-02-12T17:43:57;23.90;39.20
19908;DHT22;10116;53.112;7.356;2023-02-12T17:46:26;23.90;39.30
19908;DHT22;10116;53.112;7.356;2023-02-12T17:48:51;23.90;39.50
19908;DHT22;10116;53.112;7.356;2023-02-12T17:51:18;23.90;40.20
19908;DHT22;10116;53.112;7.356;2023-02-12T17:53:44;24.00;40.30
19908;DHT22;10116;53.112;7.356;2023-02-12T17:56:11;24.00;40.30
19908;DHT22;10116;53.112;7.356;2023-02-12T17:58:38;24.00;40.50
19908;DHT22;10116;53.112;7.356;2023-02-12T18:01:06;24.00;41.40
19908;DHT22;10116;53.112;7.356;2023-02-12T18:03:32;24.10;41.40
19908;DHT22;10116;53.112;7.356;2023-02-12T18:05:57;24.10;42.20
19908;DHT22;10116;53.112;7.356;2023-02-12T18:08:23;24.10;41.20
19908;DHT22;10116;53.112;7.356;2023-02-12T18:10:49;24.00;41.20
19908;DHT22;10116;53.112;7.356;2023-02-12T18:13:14;24.00;41.00
19908;DHT22;10116;53.112;7.356;2023-02-12T18:15:40;24.00;40.80
19908;DHT22;10116;53.112;7.356;2023-02-12T18:18:06;24.00;41.00
19908;DHT22;10116;53.112;7.356;2023-02-12T18:20:32;24.00;40.80
19908;DHT22;10116;53.112;7.356;2023-02-12T18:22:58;24.00;52.60
19908;DHT22;10116;53.112;7.356;2023-02-12T18:25:23;24.00;40.80
19908;DHT22;10116;53.112;7.356;2023-02-12T18:27:49;23.90;40.70
19908;DHT22;10116;53.112;7.356;2023-02-12T18:30:15;24.00;40.70
19908;DHT22;10116;53.112;7.356;2023-02-12T18:32:40;24.00;40.70
19908;DHT22;10116;53.112;7.356;2023-02-12T18:35:06;24.00;40.70
19908;DHT22;10116;53.112;7.356;2023-02-12T18:37:33;24.00;40.70
19908;DHT22;10116;53.112;7.356;2023-02-12T18:39:59;23.90;40.90
19908;DHT22;10116;53.112;7.356;2023-02-12T18:42:24;24.00;40.80
19908;DHT22;10116;53.112;7.356;2023-02-12T18:44:51;23.90;40.60
19908;DHT22;10116;53.112;7.356;2023-02-12T18:47:17;24.00;41.20